createdAt,value
2022-11-29T00:01:32.383Z,73.66
2022-11-29T00:04:01.146Z,73.75
2022-11-29T00:06:29.660Z,73.56
2022-11-29T00:08:58.068Z,73.45
2022-11-29T00:11:26.916Z,74.35
2022-11-29T00:13:53.318Z,74.76
2022-11-29T00:16:19.832Z,73.98
2022-11-29T00:18:48.834Z,74.52
2022-11-29T00:21:16.640Z,74.00
2022-11-29T00:23:43.094Z,76.70
2022-11-29T00:26:09.589Z,77.11
2022-11-29T00:28:36.993Z,76.58
2022-11-29T00:31:13.983Z,76.19
2022-11-29T00:33:40.569Z,76.59
2022-11-29T00:36:07.747Z,76.89
2022-11-29T00:38:35.610Z,76.28
2022-11-29T00:41:02.046Z,76.28
2022-11-29T00:43:28.513Z,75.03
2022-11-29T00:45:55.319Z,74.82
2022-11-29T00:48:22.005Z,76.25
2022-11-29T00:50:48.615Z,75.84
2022-11-29T00:53:15.188Z,75.70
2022-11-29T00:55:44.127Z,76.01
2022-11-29T00:58:10.965Z,75.87
2022-11-29T01:00:37.521Z,76.72
2022-11-29T01:03:04.066Z,76.48
2022-11-29T01:05:30.795Z,77.74
2022-11-29T01:07:57.388Z,76.75
2022-11-29T01:10:24.221Z,75.05
2022-11-29T01:12:51.984Z,74.58
2022-11-29T01:15:19.495Z,76.37
2022-11-29T01:17:45.912Z,76.03
2022-11-29T01:20:13.522Z,76.54
2022-11-29T01:22:40.445Z,76.54
2022-11-29T01:25:08.134Z,76.85
2022-11-29T01:27:35.013Z,76.73
2022-11-29T01:30:04.153Z,77.11
2022-11-29T01:32:31.116Z,77.48
2022-11-29T01:34:57.657Z,77.95
2022-11-29T01:37:24.194Z,76.93
2022-11-29T01:39:50.681Z,76.89
2022-11-29T01:42:17.082Z,77.15
2022-11-29T01:45:19.391Z,78.00
2022-11-29T01:47:47.515Z,78.16
2022-11-29T01:50:14.510Z,78.20
2022-11-29T01:52:42.074Z,79.00
2022-11-29T01:55:09.381Z,78.94
2022-11-29T01:57:39.418Z,78.85
2022-11-29T02:00:09.821Z,78.63
2022-11-29T02:02:42.779Z,78.63
2022-11-29T02:05:12.177Z,77.23
2022-11-29T02:07:38.810Z,76.25
2022-11-29T02:10:07.510Z,76.97
2022-11-29T02:12:42.735Z,74.85
2022-11-29T02:15:21.571Z,74.97
2022-11-29T02:18:05.069Z,76.08
2022-11-29T02:21:02.653Z,76.43
2022-11-29T02:23:58.974Z,78.06
2022-11-29T02:26:54.597Z,78.29
2022-11-29T02:29:46.841Z,77.47
2022-11-29T02:32:48.801Z,77.43
2022-11-29T02:35:30.462Z,78.09
2022-11-29T02:38:13.688Z,76.58
2022-11-29T02:40:56.162Z,76.23
2022-11-29T02:43:42.347Z,75.58
2022-11-29T02:46:26.300Z,76.89
2022-11-29T02:49:04.541Z,76.75
2022-11-29T02:51:41.126Z,77.50
2022-11-29T02:54:15.119Z,76.68
2022-11-29T02:56:46.583Z,77.44
2022-11-29T02:59:21.365Z,76.74
2022-11-29T03:01:57.799Z,76.33
2022-11-29T03:04:32.610Z,76.18
2022-11-29T03:07:05.986Z,75.84
2022-11-29T03:09:38.815Z,76.06
2022-11-29T03:12:18.348Z,76.67
2022-11-29T03:14:57.480Z,74.46
2022-11-29T03:17:32.510Z,74.42
2022-11-29T03:20:21.897Z,73.42
2022-11-29T03:23:06.930Z,74.72
2022-11-29T03:25:38.706Z,75.09
2022-11-29T03:28:11.261Z,75.42
2022-11-29T03:30:42.782Z,76.27
2022-11-29T03:33:16.251Z,78.14
2022-11-29T03:35:55.297Z,77.63
2022-11-29T03:38:28.230Z,78.58
2022-11-29T03:41:04.101Z,78.54
2022-11-29T03:43:39.255Z,77.61
2022-11-29T03:46:10.924Z,77.95
2022-11-29T03:48:43.983Z,77.86
2022-11-29T03:51:16.085Z,77.15
2022-11-29T03:53:49.060Z,77.68
2022-11-29T03:56:27.459Z,76.88
2022-11-29T03:59:03.754Z,78.41
2022-11-29T04:02:02.340Z,79.02
2022-11-29T04:05:07.260Z,78.37
2022-11-29T04:07:49.588Z,78.67
2022-11-29T04:10:35.545Z,78.40
2022-11-29T04:13:33.930Z,78.49
2022-11-29T04:16:26.718Z,79.83
2022-11-29T04:19:23.630Z,78.95
2022-11-29T04:22:11.198Z,80.21
2022-11-29T04:25:36.102Z,79.45
2022-11-29T04:28:25.219Z,79.06
2022-11-29T04:31:00.799Z,79.96
2022-11-29T04:33:57.028Z,80.16
2022-11-29T04:36:41.950Z,80.48
2022-11-29T04:39:26.329Z,79.44
2022-11-29T04:42:14.652Z,80.37
2022-11-29T04:44:55.322Z,80.08
2022-11-29T04:47:43.949Z,80.11
2022-11-29T04:50:25.455Z,80.60
2022-11-29T04:53:15.223Z,80.14
2022-11-29T04:55:50.999Z,79.43
2022-11-29T04:58:29.873Z,80.25
2022-11-29T05:01:03.894Z,80.76
2022-11-29T05:03:39.593Z,80.59
2022-11-29T05:06:19.613Z,79.14
2022-11-29T05:08:51.207Z,78.83
2022-11-29T05:11:26.992Z,79.97
2022-11-29T05:14:00.945Z,80.18
2022-11-29T05:16:51.233Z,80.54
2022-11-29T05:19:35.244Z,80.62
2022-11-29T05:22:06.135Z,79.64
2022-11-29T05:24:46.843Z,80.40
2022-11-29T05:27:22.996Z,80.81
2022-11-29T05:29:58.264Z,81.46
2022-11-29T05:32:30.839Z,79.79
2022-11-29T05:35:13.628Z,78.83
2022-11-29T05:37:45.783Z,79.07
2022-11-29T05:40:35.767Z,79.76
2022-11-29T05:43:12.593Z,79.63
2022-11-29T05:45:47.648Z,79.79
2022-11-29T05:48:24.275Z,78.98
2022-11-29T05:50:59.607Z,79.44
2022-11-29T05:53:33.951Z,79.32
2022-11-29T05:56:09.186Z,79.31
2022-11-29T05:58:47.433Z,79.56
2022-11-29T06:01:21.644Z,79.24
2022-11-29T06:03:57.951Z,79.92
2022-11-29T06:06:32.652Z,79.51
2022-11-29T06:09:04.806Z,78.90
2022-11-29T06:11:36.147Z,77.70
2022-11-29T06:14:07.444Z,78.40
2022-11-29T06:17:00.436Z,77.74
2022-11-29T06:19:52.933Z,76.08
2022-11-29T06:22:39.433Z,74.86
2022-11-29T06:25:27.683Z,75.71
2022-11-29T06:28:08.973Z,78.00
2022-11-29T06:30:47.955Z,78.33
2022-11-29T06:33:22.504Z,78.28
2022-11-29T06:35:57.522Z,76.98
2022-11-29T06:38:27.154Z,76.70
2022-11-29T06:41:00.136Z,76.44
2022-11-29T06:43:29.365Z,76.68
2022-11-29T06:46:03.853Z,78.63
2022-11-29T06:48:39.908Z,78.80
2022-11-29T06:51:10.682Z,80.27
2022-11-29T06:53:44.996Z,79.03
2022-11-29T06:56:21.342Z,79.45
2022-11-29T06:58:55.554Z,78.02
2022-11-29T07:01:35.610Z,78.78
2022-11-29T07:04:23.052Z,77.95
2022-11-29T07:06:49.914Z,79.36
2022-11-29T07:09:18.894Z,79.24
2022-11-29T07:11:46.825Z,77.77
2022-11-29T07:14:13.755Z,76.81
2022-11-29T07:16:53.155Z,77.42
2022-11-29T07:19:30.852Z,76.62
2022-11-29T07:22:05.155Z,76.95
2022-11-29T07:24:47.588Z,77.84
2022-11-29T07:27:19.802Z,77.39
2022-11-29T07:30:02.646Z,78.62
2022-11-29T07:32:42.093Z,75.71
2022-11-29T07:35:16.967Z,76.09
2022-11-29T07:37:56.985Z,74.45
2022-11-29T07:40:35.931Z,74.70
2022-11-29T07:43:22.388Z,75.78
2022-11-29T07:45:50.307Z,77.50
2022-11-29T07:48:17.432Z,76.65
2022-11-29T07:50:45.444Z,75.21
2022-11-29T07:53:16.151Z,75.70
2022-11-29T07:55:42.912Z,72.83
2022-11-29T07:58:10.989Z,73.88
2022-11-29T08:00:37.519Z,75.73
2022-11-29T08:03:04.581Z,75.84
2022-11-29T08:05:31.323Z,76.32
2022-11-29T08:07:59.747Z,75.24
2022-11-29T08:10:26.386Z,75.34
2022-11-29T08:12:53.116Z,76.14
2022-11-29T08:15:22.187Z,77.48
2022-11-29T08:17:49.235Z,77.62
2022-11-29T08:20:16.219Z,77.35
2022-11-29T08:22:43.028Z,77.75
2022-11-29T08:25:11.367Z,76.01
2022-11-29T08:27:38.217Z,76.39
2022-11-29T08:30:06.481Z,76.55
2022-11-29T08:32:33.627Z,76.71
2022-11-29T08:35:00.117Z,77.47
2022-11-29T08:37:26.560Z,77.83
2022-11-29T08:39:52.982Z,77.55
2022-11-29T08:42:20.764Z,77.35
2022-11-29T08:44:47.393Z,76.82
2022-11-29T08:47:14.027Z,76.62
2022-11-29T08:49:40.517Z,78.29
2022-11-29T08:52:06.926Z,77.78
2022-11-29T08:54:33.322Z,77.14
2022-11-29T08:57:37.430Z,78.14
2022-11-29T08:59:47.418Z,77.91
2022-11-29T09:02:13.909Z,76.48
2022-11-29T09:04:40.322Z,77.57
2022-11-29T09:07:06.839Z,78.96
2022-11-29T09:09:33.409Z,78.82
2022-11-29T09:11:59.795Z,78.09
2022-11-29T09:14:26.575Z,80.88
2022-11-29T09:16:54.416Z,80.64
2022-11-29T09:19:20.864Z,79.21
2022-11-29T09:21:47.276Z,78.58
2022-11-29T09:24:13.962Z,78.06
2022-11-29T09:26:40.350Z,76.53
2022-11-29T09:29:06.959Z,78.91
2022-11-29T09:31:34.328Z,80.11
2022-11-29T09:34:02.208Z,80.17
2022-11-29T09:36:29.643Z,78.09
2022-11-29T09:38:56.623Z,79.41
2022-11-29T09:41:38.568Z,80.23
2022-11-29T09:44:14.414Z,78.88
2022-11-29T09:46:55.826Z,80.89
2022-11-29T09:49:50.120Z,79.66
2022-11-29T09:52:26.535Z,80.45
2022-11-29T09:55:01.398Z,80.85
2022-11-29T09:57:29.479Z,81.12
2022-11-29T09:59:59.086Z,80.98
2022-11-29T10:02:36.283Z,80.31
2022-11-29T10:05:09.866Z,79.88
2022-11-29T10:07:42.781Z,79.00
2022-11-29T10:10:16.965Z,78.89
2022-11-29T10:12:48.755Z,78.40
2022-11-29T10:15:19.681Z,79.85
2022-11-29T10:17:53.186Z,81.88
2022-11-29T10:20:24.226Z,81.11
2022-11-29T10:22:55.233Z,81.36
2022-11-29T10:25:25.644Z,81.29
2022-11-29T10:27:53.234Z,80.56
2022-11-29T10:30:21.369Z,79.11
2022-11-29T10:32:51.812Z,81.05
2022-11-29T10:35:21.577Z,81.45
2022-11-29T10:38:14.479Z,81.46
2022-11-29T10:40:38.998Z,79.26
2022-11-29T10:43:05.485Z,77.26
2022-11-29T10:45:34.742Z,76.94
2022-11-29T10:48:04.669Z,78.32
2022-11-29T10:50:35.224Z,79.30
2022-11-29T10:53:05.579Z,77.99
2022-11-29T10:55:39.975Z,78.87
2022-11-29T10:58:15.791Z,77.39
2022-11-29T11:00:50.279Z,79.57
2022-11-29T11:03:24.276Z,79.79
2022-11-29T11:06:01.690Z,78.46
2022-11-29T11:08:29.422Z,79.22
2022-11-29T11:11:01.240Z,78.59
2022-11-29T11:13:30.890Z,77.33
2022-11-29T11:15:59.319Z,77.94
2022-11-29T11:18:27.132Z,79.11
2022-11-29T11:20:56.506Z,81.51
2022-11-29T11:23:26.765Z,80.75
2022-11-29T11:25:59.001Z,80.73
2022-11-29T11:28:28.141Z,81.85
2022-11-29T11:30:57.182Z,82.55
2022-11-29T11:33:26.774Z,82.87
2022-11-29T11:36:07.385Z,81.76
2022-11-29T11:38:36.640Z,83.15
2022-11-29T11:41:07.319Z,82.99
2022-11-29T11:43:34.413Z,81.97
2022-11-29T11:46:01.026Z,81.42
2022-11-29T11:48:27.821Z,81.68
2022-11-29T11:50:55.973Z,82.31
2022-11-29T11:53:24.943Z,82.95
2022-11-29T11:55:59.178Z,82.94
2022-11-29T11:58:28.713Z,82.82
2022-11-29T12:01:05.261Z,82.03
2022-11-29T12:03:45.386Z,83.57
2022-11-29T12:06:39.302Z,82.94
2022-11-29T12:09:12.266Z,80.69
2022-11-29T12:11:47.723Z,80.43
2022-11-29T12:14:23.306Z,80.28
2022-11-29T12:16:55.119Z,80.87
2022-11-29T12:19:24.961Z,80.17
2022-11-29T12:21:58.417Z,80.95
2022-11-29T12:24:30.258Z,82.20
2022-11-29T12:27:03.971Z,81.73
2022-11-29T12:29:32.157Z,81.67
2022-11-29T12:32:19.596Z,81.02
2022-11-29T12:35:00.340Z,79.82
2022-11-29T12:37:35.563Z,80.43
2022-11-29T12:40:06.413Z,78.74
2022-11-29T12:42:44.447Z,79.57
2022-11-29T12:45:34.332Z,80.39
2022-11-29T12:48:09.500Z,81.56
2022-11-29T12:50:45.283Z,78.78
2022-11-29T12:53:27.725Z,78.46
2022-11-29T12:56:04.759Z,77.97
2022-11-29T12:58:45.880Z,81.20
2022-11-29T13:01:23.046Z,80.12
2022-11-29T13:03:58.558Z,80.32
2022-11-29T13:06:31.414Z,79.02
2022-11-29T13:09:28.059Z,78.84
2022-11-29T13:11:58.221Z,77.89
2022-11-29T13:14:42.694Z,77.02
2022-11-29T13:17:25.894Z,79.29
2022-11-29T13:19:57.360Z,79.72
2022-11-29T13:22:28.711Z,79.52
2022-11-29T13:24:59.019Z,79.30
2022-11-29T13:27:29.779Z,79.13
2022-11-29T13:30:00.307Z,80.02
2022-11-29T13:32:35.927Z,80.55
2022-11-29T13:35:11.675Z,79.81
2022-11-29T13:37:45.072Z,78.56
2022-11-29T13:40:22.598Z,78.81
2022-11-29T13:42:57.870Z,79.61
2022-11-29T13:45:34.094Z,78.01
2022-11-29T13:48:24.951Z,78.38
2022-11-29T13:50:55.208Z,80.32
2022-11-29T13:53:23.823Z,79.07
2022-11-29T13:55:55.164Z,78.28
2022-11-29T13:58:34.968Z,78.36
2022-11-29T14:01:06.946Z,78.90
2022-11-29T14:03:36.282Z,79.27
2022-11-29T14:06:13.362Z,79.86
2022-11-29T14:09:17.149Z,78.56
2022-11-29T14:11:36.096Z,77.54
2022-11-29T14:14:05.866Z,77.03
2022-11-29T14:16:38.115Z,77.85
2022-11-29T14:19:19.860Z,78.42
2022-11-29T14:22:15.741Z,77.29
2022-11-29T14:24:43.410Z,78.55
2022-11-29T14:27:47.457Z,78.31
2022-11-29T14:30:49.170Z,79.10
2022-11-29T14:33:29.152Z,77.73
2022-11-29T14:36:19.803Z,78.23
2022-11-29T14:38:51.985Z,77.74
2022-11-29T14:41:28.585Z,76.08
2022-11-29T14:44:15.584Z,76.74
2022-11-29T14:46:42.669Z,76.01
2022-11-29T14:49:22.257Z,75.62
2022-11-29T14:52:16.057Z,76.41
2022-11-29T14:54:54.680Z,75.72
2022-11-29T14:57:53.339Z,77.16
2022-11-29T15:00:21.550Z,76.34
2022-11-29T15:02:50.532Z,77.39
2022-11-29T15:05:22.153Z,77.63
2022-11-29T15:07:56.562Z,77.76
2022-11-29T15:10:28.135Z,78.10
2022-11-29T15:12:55.652Z,77.60
2022-11-29T15:15:40.666Z,77.21
2022-11-29T15:18:30.152Z,76.83
2022-11-29T15:21:14.639Z,76.91
2022-11-29T15:23:41.887Z,77.06
2022-11-29T15:26:17.008Z,76.28
2022-11-29T15:28:43.710Z,76.76
2022-11-29T15:31:13.039Z,76.56
2022-11-29T15:33:41.679Z,75.79
2022-11-29T15:36:15.900Z,74.91
2022-11-29T15:38:44.104Z,76.50
2022-11-29T15:41:22.024Z,76.32
2022-11-29T15:43:52.932Z,76.84
2022-11-29T15:46:20.548Z,78.63
2022-11-29T15:48:47.000Z,78.06
2022-11-29T15:51:24.124Z,76.73
2022-11-29T15:54:11.247Z,78.41
2022-11-29T15:56:44.854Z,77.21
2022-11-29T15:59:18.651Z,78.44
2022-11-29T16:01:49.034Z,78.15
2022-11-29T16:04:20.005Z,78.68
2022-11-29T16:06:49.541Z,79.21
2022-11-29T16:09:32.431Z,78.62
2022-11-29T16:12:01.126Z,79.27
2022-11-29T16:14:27.694Z,78.77
2022-11-29T16:16:56.956Z,79.34
2022-11-29T16:19:29.803Z,79.06
2022-11-29T16:22:13.647Z,79.22
2022-11-29T16:24:46.267Z,80.62
2022-11-29T16:27:13.227Z,79.93
2022-11-29T16:29:43.653Z,78.78
2022-11-29T16:32:20.243Z,78.51
2022-11-29T16:34:47.144Z,79.51
2022-11-29T16:37:18.092Z,81.50
2022-11-29T16:39:46.772Z,80.85
2022-11-29T16:42:20.627Z,82.08
2022-11-29T16:45:02.837Z,83.51
2022-11-29T16:47:30.730Z,84.32
2022-11-29T16:50:13.145Z,82.53
2022-11-29T16:52:40.931Z,83.55
2022-11-29T16:55:08.251Z,83.40
2022-11-29T16:57:35.749Z,83.61
2022-11-29T17:00:08.967Z,83.24
2022-11-29T17:02:35.410Z,83.30
2022-11-29T17:05:01.821Z,82.82
2022-11-29T17:07:30.929Z,82.38
2022-11-29T17:09:59.538Z,82.19
2022-11-29T17:12:26.026Z,82.02
2022-11-29T17:14:52.428Z,82.07
2022-11-29T17:17:19.363Z,83.15
2022-11-29T17:19:45.823Z,82.71
2022-11-29T17:22:12.559Z,81.27
2022-11-29T17:24:42.328Z,81.22
2022-11-29T17:27:13.976Z,83.66
2022-11-29T17:29:40.418Z,82.15
2022-11-29T17:32:06.904Z,82.76
2022-11-29T17:34:33.462Z,83.61
2022-11-29T17:36:59.926Z,83.60
2022-11-29T17:39:26.415Z,84.09
2022-11-29T17:41:52.875Z,83.40
2022-11-29T17:44:20.639Z,83.83
2022-11-29T17:46:47.063Z,83.72
2022-11-29T17:49:13.488Z,83.06
2022-11-29T17:51:51.639Z,83.98
2022-11-29T17:54:18.476Z,84.01
2022-11-29T17:56:45.151Z,83.67
2022-11-29T17:59:11.602Z,84.46
2022-11-29T18:01:39.526Z,85.02
2022-11-29T18:04:06.712Z,85.32
2022-11-29T18:06:35.458Z,84.31
2022-11-29T18:09:03.578Z,84.36
2022-11-29T18:11:37.515Z,86.49
2022-11-29T18:14:10.755Z,86.34
2022-11-29T18:16:38.657Z,86.70
2022-11-29T18:19:07.500Z,86.88
2022-11-29T18:21:34.733Z,85.49
2022-11-29T18:24:03.173Z,86.30
2022-11-29T18:26:30.827Z,86.29
2022-11-29T18:28:58.769Z,85.98
2022-11-29T18:31:28.164Z,86.45
2022-11-29T18:33:58.054Z,88.47
2022-11-29T18:36:27.877Z,87.78
2022-11-29T18:38:56.373Z,87.53
2022-11-29T18:41:23.470Z,85.58
2022-11-29T18:43:56.828Z,87.54
2022-11-29T18:46:23.785Z,86.37
2022-11-29T18:48:50.297Z,87.45
2022-11-29T18:51:20.069Z,86.38
2022-11-29T18:53:46.810Z,86.56
2022-11-29T18:56:15.509Z,87.22
2022-11-29T18:58:42.447Z,86.01
2022-11-29T19:01:10.543Z,85.96
2022-11-29T19:03:38.468Z,85.60
2022-11-29T19:06:06.739Z,86.21
2022-11-29T19:08:34.630Z,86.54
2022-11-29T19:11:04.373Z,86.25
2022-11-29T19:13:30.825Z,85.72
2022-11-29T19:15:57.299Z,86.43
2022-11-29T19:18:23.769Z,87.35
2022-11-29T19:20:50.535Z,87.32
2022-11-29T19:23:16.963Z,86.16
2022-11-29T19:25:44.717Z,86.14
2022-11-29T19:28:14.088Z,87.40
2022-11-29T19:30:41.008Z,87.93
2022-11-29T19:33:07.463Z,86.38
2022-11-29T19:35:34.797Z,86.86
2022-11-29T19:38:01.224Z,85.32
2022-11-29T19:40:27.626Z,86.19
2022-11-29T19:42:55.397Z,86.23
2022-11-29T19:45:22.115Z,85.50
2022-11-29T19:47:48.529Z,86.99
2022-11-29T19:50:15.183Z,86.32
2022-11-29T19:52:41.634Z,86.78
2022-11-29T19:55:08.936Z,87.21
2022-11-29T19:57:35.353Z,87.13
2022-11-29T20:00:03.645Z,85.71
2022-11-29T20:02:30.117Z,85.98
2022-11-29T20:04:56.767Z,85.86
2022-11-29T20:07:23.395Z,86.43
2022-11-29T20:09:49.844Z,86.66
2022-11-29T20:12:16.330Z,85.41
2022-11-29T20:14:42.767Z,85.31
2022-11-29T20:17:10.511Z,87.89
2022-11-29T20:19:36.956Z,89.40
2022-11-29T20:22:03.464Z,88.27
2022-11-29T20:24:34.885Z,87.77
2022-11-29T20:27:04.878Z,87.56
2022-11-29T20:29:31.325Z,91.05
2022-11-29T20:31:57.891Z,91.01
2022-11-29T20:34:26.138Z,88.80
2022-11-29T20:37:29.956Z,88.60
2022-11-29T20:39:59.936Z,88.19
2022-11-29T20:42:46.646Z,87.37
2022-11-29T20:45:14.715Z,89.57
2022-11-29T20:47:48.558Z,89.63
2022-11-29T20:50:22.982Z,90.56
2022-11-29T20:52:58.183Z,89.98
2022-11-29T20:55:24.817Z,88.33
2022-11-29T20:57:51.342Z,88.83
2022-11-29T21:00:18.333Z,87.30
2022-11-29T21:02:44.785Z,88.17
2022-11-29T21:05:11.234Z,89.25
2022-11-29T21:07:39.023Z,89.10
2022-11-29T21:10:06.883Z,88.68
2022-11-29T21:12:33.845Z,88.46
2022-11-29T21:15:00.775Z,89.69
2022-11-29T21:17:33.356Z,90.22
2022-11-29T21:20:00.769Z,90.38
2022-11-29T21:22:37.687Z,89.47
2022-11-29T21:25:15.075Z,90.72
2022-11-29T21:27:42.113Z,91.09
2022-11-29T21:30:18.021Z,92.26
2022-11-29T21:32:45.199Z,90.15
2022-11-29T21:35:11.850Z,91.67
2022-11-29T21:37:38.652Z,91.86
2022-11-29T21:40:08.323Z,93.42
2022-11-29T21:42:34.880Z,92.06
2022-11-29T21:45:01.571Z,92.99
2022-11-29T21:47:28.013Z,92.58
2022-11-29T21:49:54.410Z,92.55
2022-11-29T21:52:22.864Z,93.05
2022-11-29T21:54:49.770Z,92.78
2022-11-29T21:57:17.531Z,91.96
2022-11-29T21:59:43.953Z,92.71
2022-11-29T22:02:10.526Z,90.43
2022-11-29T22:04:37.035Z,91.36
2022-11-29T22:07:03.442Z,92.61
2022-11-29T22:09:29.838Z,92.26
2022-11-29T22:11:56.376Z,91.87
2022-11-29T22:14:24.273Z,92.15
2022-11-29T22:16:52.474Z,92.32
2022-11-29T22:19:20.565Z,92.39
2022-11-29T22:21:49.266Z,92.30
2022-11-29T22:24:17.217Z,91.06
2022-11-29T22:26:44.114Z,91.11
2022-11-29T22:29:10.818Z,88.88
2022-11-29T22:31:38.898Z,90.84
2022-11-29T22:34:05.388Z,91.42
2022-11-29T22:36:32.123Z,91.17
2022-11-29T22:38:58.702Z,91.13
2022-11-29T22:41:25.261Z,91.55
2022-11-29T22:43:51.728Z,92.34
2022-11-29T22:46:20.159Z,91.71
2022-11-29T22:48:49.493Z,92.22
2022-11-29T22:51:17.894Z,91.06
2022-11-29T22:53:49.232Z,90.78
2022-11-29T22:56:17.027Z,90.65
2022-11-29T22:58:43.671Z,91.07
2022-11-29T23:01:12.330Z,91.21
2022-11-29T23:03:42.265Z,90.99
2022-11-29T23:06:12.258Z,92.27
2022-11-29T23:08:39.921Z,91.53
2022-11-29T23:11:08.578Z,91.15
2022-11-29T23:13:36.771Z,90.70
2022-11-29T23:16:05.382Z,90.37
2022-11-29T23:18:32.302Z,89.98
2022-11-29T23:21:02.006Z,90.14
2022-11-29T23:23:30.363Z,90.04
2022-11-29T23:25:57.128Z,89.19
2022-11-29T23:28:23.997Z,89.76
2022-11-29T23:30:50.633Z,89.17
2022-11-29T23:33:17.278Z,89.14
2022-11-29T23:35:43.862Z,91.56
2022-11-29T23:38:10.279Z,91.94
2022-11-29T23:40:38.020Z,90.91
2022-11-29T23:43:04.444Z,92.09
2022-11-29T23:45:30.929Z,91.90
2022-11-29T23:47:57.693Z,91.14
2022-11-29T23:50:24.531Z,92.72
2022-11-29T23:52:55.203Z,91.98
2022-11-29T23:55:22.731Z,91.91
2022-11-29T23:57:51.210Z,90.29
